sensor_id;sensor_type;location;lat;lon;timestamp;P1;durP1;ratioP1;P2;durP2;ratioP2
31652;SDS011;18261;53.648;9.910;2022-11-20T00:00:56;9.02;;;5.28;;
31652;SDS011;18261;53.648;9.910;2022-11-20T00:03:22;11.60;;;5.68;;
31652;SDS011;18261;53.648;9.910;2022-11-20T00:05:48;11.23;;;5.40;;
31652;SDS011;18261;53.648;9.910;2022-11-20T00:08:14;9.60;;;5.28;;
31652;SDS011;18261;53.648;9.910;2022-11-20T00:10:40;12.75;;;6.00;;
31652;SDS011;18261;53.648;9.910;2022-11-20T00:13:06;11.80;;;5.53;;
31652;SDS011;18261;53.648;9.910;2022-11-20T00:15:32;10.93;;;5.38;;
31652;SDS011;18261;53.648;9.910;2022-11-20T00:17:58;11.52;;;4.97;;
31652;SDS011;18261;53.648;9.910;2022-11-20T00:20:24;11.45;;;5.07;;
31652;SDS011;18261;53.648;9.910;2022-11-20T00:22:50;9.52;;;4.93;;
31652;SDS011;18261;53.648;9.910;2022-11-20T00:25:16;11.93;;;6.00;;
31652;SDS011;18261;53.648;9.910;2022-11-20T00:27:42;8.63;;;4.97;;
31652;SDS011;18261;53.648;9.910;2022-11-20T00:30:08;13.77;;;5.32;;
31652;SDS011;18261;53.648;9.910;2022-11-20T00:32:34;12.38;;;5.72;;
31652;SDS011;18261;53.648;9.910;2022-11-20T00:35:00;9.75;;;5.00;;
31652;SDS011;18261;53.648;9.910;2022-11-20T00:37:26;10.35;;;5.15;;
31652;SDS011;18261;53.648;9.910;2022-11-20T00:39:52;10.13;;;5.07;;
31652;SDS011;18261;53.648;9.910;2022-11-20T00:42:18;9.05;;;4.97;;
31652;SDS011;18261;53.648;9.910;2022-11-20T00:44:44;10.93;;;5.38;;
31652;SDS011;18261;53.648;9.910;2022-11-20T00:47:10;10.05;;;4.43;;
31652;SDS011;18261;53.648;9.910;2022-11-20T00:49:36;13.23;;;5.32;;
31652;SDS011;18261;53.648;9.910;2022-11-20T00:52:02;8.30;;;4.78;;
31652;SDS011;18261;53.648;9.910;2022-11-20T00:54:28;11.30;;;5.18;;
31652;SDS011;18261;53.648;9.910;2022-11-20T00:56:54;11.63;;;5.00;;
31652;SDS011;18261;53.648;9.910;2022-11-20T00:59:20;10.50;;;5.18;;
31652;SDS011;18261;53.648;9.910;2022-11-20T01:01:46;15.27;;;4.78;;
31652;SDS011;18261;53.648;9.910;2022-11-20T01:04:12;16.92;;;5.00;;
31652;SDS011;18261;53.648;9.910;2022-11-20T01:06:38;11.45;;;5.03;;
31652;SDS011;18261;53.648;9.910;2022-11-20T01:09:05;13.77;;;4.75;;
31652;SDS011;18261;53.648;9.910;2022-11-20T01:11:32;10.18;;;4.85;;
31652;SDS011;18261;53.648;9.910;2022-11-20T01:13:59;9.32;;;5.15;;
31652;SDS011;18261;53.648;9.910;2022-11-20T01:16:27;10.88;;;5.32;;
31652;SDS011;18261;53.648;9.910;2022-11-20T01:18:55;10.35;;;5.90;;
31652;SDS011;18261;53.648;9.910;2022-11-20T01:21:25;11.50;;;6.00;;
31652;SDS011;18261;53.648;9.910;2022-11-20T01:23:52;14.43;;;5.03;;
31652;SDS011;18261;53.648;9.910;2022-11-20T01:26:19;12.77;;;5.05;;
31652;SDS011;18261;53.648;9.910;2022-11-20T01:28:46;11.73;;;4.72;;
31652;SDS011;18261;53.648;9.910;2022-11-20T01:33:41;11.43;;;5.65;;
31652;SDS011;18261;53.648;9.910;2022-11-20T01:36:08;9.48;;;5.13;;
31652;SDS011;18261;53.648;9.910;2022-11-20T01:38:34;13.68;;;5.75;;
31652;SDS011;18261;53.648;9.910;2022-11-20T01:41:00;10.93;;;4.82;;
31652;SDS011;18261;53.648;9.910;2022-11-20T01:43:26;9.25;;;4.75;;
31652;SDS011;18261;53.648;9.910;2022-11-20T01:48:22;8.40;;;4.57;;
31652;SDS011;18261;53.648;9.910;2022-11-20T01:50:49;10.48;;;5.18;;
31652;SDS011;18261;53.648;9.910;2022-11-20T01:53:16;13.60;;;4.80;;
31652;SDS011;18261;53.648;9.910;2022-11-20T01:55:44;8.50;;;4.70;;
31652;SDS011;18261;53.648;9.910;2022-11-20T01:58:12;9.07;;;4.65;;
31652;SDS011;18261;53.648;9.910;2022-11-20T02:00:39;13.02;;;5.40;;
31652;SDS011;18261;53.648;9.910;2022-11-20T02:03:09;10.10;;;5.10;;
31652;SDS011;18261;53.648;9.910;2022-11-20T02:05:49;8.75;;;4.75;;
31652;SDS011;18261;53.648;9.910;2022-11-20T02:08:17;8.40;;;4.45;;
31652;SDS011;18261;53.648;9.910;2022-11-20T02:10:43;8.07;;;4.47;;
31652;SDS011;18261;53.648;9.910;2022-11-20T02:13:09;8.90;;;4.45;;
31652;SDS011;18261;53.648;9.910;2022-11-20T02:18:20;10.20;;;4.57;;
31652;SDS011;18261;53.648;9.910;2022-11-20T02:20:48;9.88;;;5.28;;
31652;SDS011;18261;53.648;9.910;2022-11-20T02:23:17;11.15;;;5.88;;
31652;SDS011;18261;53.648;9.910;2022-11-20T02:25:45;9.18;;;5.05;;
31652;SDS011;18261;53.648;9.910;2022-11-20T02:28:11;12.68;;;5.07;;
31652;SDS011;18261;53.648;9.910;2022-11-20T02:30:37;10.50;;;5.20;;
31652;SDS011;18261;53.648;9.910;2022-11-20T02:33:03;8.85;;;5.18;;
31652;SDS011;18261;53.648;9.910;2022-11-20T02:37:56;9.93;;;5.47;;
31652;SDS011;18261;53.648;9.910;2022-11-20T02:40:22;11.00;;;5.00;;
31652;SDS011;18261;53.648;9.910;2022-11-20T02:42:52;10.05;;;5.20;;
31652;SDS011;18261;53.648;9.910;2022-11-20T02:45:18;9.25;;;4.47;;
31652;SDS011;18261;53.648;9.910;2022-11-20T02:47:44;8.82;;;4.40;;
31652;SDS011;18261;53.648;9.910;2022-11-20T02:50:10;8.43;;;4.35;;
31652;SDS011;18261;53.648;9.910;2022-11-20T02:52:35;7.97;;;4.65;;
31652;SDS011;18261;53.648;9.910;2022-11-20T02:55:02;8.65;;;4.57;;
31652;SDS011;18261;53.648;9.910;2022-11-20T02:57:28;9.75;;;4.90;;
31652;SDS011;18261;53.648;9.910;2022-11-20T02:59:54;8.10;;;4.03;;
31652;SDS011;18261;53.648;9.910;2022-11-20T03:02:20;7.72;;;4.20;;
31652;SDS011;18261;53.648;9.910;2022-11-20T03:04:46;9.48;;;4.38;;
31652;SDS011;18261;53.648;9.910;2022-11-20T03:07:12;7.10;;;4.65;;
31652;SDS011;18261;53.648;9.910;2022-11-20T03:09:38;12.27;;;4.70;;
31652;SDS011;18261;53.648;9.910;2022-11-20T03:12:04;9.98;;;4.20;;
31652;SDS011;18261;53.648;9.910;2022-11-20T03:14:30;7.05;;;4.22;;
31652;SDS011;18261;53.648;9.910;2022-11-20T03:16:56;10.00;;;4.50;;
31652;SDS011;18261;53.648;9.910;2022-11-20T03:19:22;9.23;;;4.57;;
31652;SDS011;18261;53.648;9.910;2022-11-20T03:21:48;12.05;;;4.93;;
31652;SDS011;18261;53.648;9.910;2022-11-20T03:24:14;10.25;;;4.82;;
31652;SDS011;18261;53.648;9.910;2022-11-20T03:26:40;10.05;;;5.60;;
31652;SDS011;18261;53.648;9.910;2022-11-20T03:29:07;9.35;;;4.32;;
31652;SDS011;18261;53.648;9.910;2022-11-20T03:31:34;9.55;;;4.80;;
31652;SDS011;18261;53.648;9.910;2022-11-20T03:34:00;8.07;;;4.10;;
31652;SDS011;18261;53.648;9.910;2022-11-20T03:36:27;11.20;;;4.80;;
31652;SDS011;18261;53.648;9.910;2022-11-20T03:38:54;7.72;;;3.83;;
31652;SDS011;18261;53.648;9.910;2022-11-20T03:41:21;7.80;;;3.92;;
31652;SDS011;18261;53.648;9.910;2022-11-20T03:43:51;8.07;;;4.30;;
31652;SDS011;18261;53.648;9.910;2022-11-20T03:46:17;8.18;;;4.10;;
31652;SDS011;18261;53.648;9.910;2022-11-20T03:48:43;7.85;;;4.35;;
31652;SDS011;18261;53.648;9.910;2022-11-20T03:51:10;7.88;;;4.05;;
31652;SDS011;18261;53.648;9.910;2022-11-20T03:53:38;8.95;;;4.10;;
31652;SDS011;18261;53.648;9.910;2022-11-20T03:56:04;10.85;;;4.38;;
31652;SDS011;18261;53.648;9.910;2022-11-20T03:58:30;9.05;;;4.40;;
31652;SDS011;18261;53.648;9.910;2022-11-20T04:00:56;8.10;;;4.15;;
31652;SDS011;18261;53.648;9.910;2022-11-20T04:03:22;12.38;;;5.07;;
31652;SDS011;18261;53.648;9.910;2022-11-20T04:05:48;8.07;;;4.63;;
31652;SDS011;18261;53.648;9.910;2022-11-20T04:08:14;10.60;;;4.45;;
31652;SDS011;18261;53.648;9.910;2022-11-20T04:10:40;7.60;;;4.50;;
31652;SDS011;18261;53.648;9.910;2022-11-20T04:13:06;7.40;;;4.57;;
31652;SDS011;18261;53.648;9.910;2022-11-20T04:15:32;9.82;;;4.53;;
31652;SDS011;18261;53.648;9.910;2022-11-20T04:17:58;9.50;;;4.47;;
31652;SDS011;18261;53.648;9.910;2022-11-20T04:20:23;10.25;;;4.57;;
31652;SDS011;18261;53.648;9.910;2022-11-20T04:22:52;9.73;;;4.03;;
31652;SDS011;18261;53.648;9.910;2022-11-20T04:25:19;12.52;;;4.75;;
31652;SDS011;18261;53.648;9.910;2022-11-20T04:27:44;8.43;;;4.78;;
31652;SDS011;18261;53.648;9.910;2022-11-20T04:30:11;7.68;;;3.90;;
31652;SDS011;18261;53.648;9.910;2022-11-20T04:32:37;10.73;;;5.38;;
31652;SDS011;18261;53.648;9.910;2022-11-20T04:35:03;8.50;;;4.25;;
31652;SDS011;18261;53.648;9.910;2022-11-20T04:37:29;8.70;;;4.53;;
31652;SDS011;18261;53.648;9.910;2022-11-20T04:39:55;7.68;;;5.00;;
31652;SDS011;18261;53.648;9.910;2022-11-20T04:42:21;10.25;;;5.00;;
31652;SDS011;18261;53.648;9.910;2022-11-20T04:44:53;7.13;;;4.10;;
31652;SDS011;18261;53.648;9.910;2022-11-20T04:47:19;8.20;;;4.55;;
31652;SDS011;18261;53.648;9.910;2022-11-20T04:49:45;11.32;;;4.18;;
31652;SDS011;18261;53.648;9.910;2022-11-20T04:52:11;7.20;;;4.20;;
31652;SDS011;18261;53.648;9.910;2022-11-20T04:54:37;12.75;;;4.60;;
31652;SDS011;18261;53.648;9.910;2022-11-20T04:57:03;9.02;;;4.28;;
31652;SDS011;18261;53.648;9.910;2022-11-20T04:59:29;7.95;;;4.55;;
31652;SDS011;18261;53.648;9.910;2022-11-20T05:01:55;11.85;;;4.40;;
31652;SDS011;18261;53.648;9.910;2022-11-20T05:04:21;12.40;;;4.70;;
31652;SDS011;18261;53.648;9.910;2022-11-20T05:06:48;10.73;;;5.28;;
31652;SDS011;18261;53.648;9.910;2022-11-20T05:09:14;12.93;;;6.10;;
31652;SDS011;18261;53.648;9.910;2022-11-20T05:11:40;12.27;;;4.65;;
31652;SDS011;18261;53.648;9.910;2022-11-20T05:14:06;10.55;;;4.82;;
31652;SDS011;18261;53.648;9.910;2022-11-20T05:16:33;11.15;;;5.00;;
31652;SDS011;18261;53.648;9.910;2022-11-20T05:19:00;9.05;;;4.95;;
31652;SDS011;18261;53.648;9.910;2022-11-20T05:21:26;10.75;;;5.13;;
31652;SDS011;18261;53.648;9.910;2022-11-20T05:23:52;10.20;;;4.82;;
31652;SDS011;18261;53.648;9.910;2022-11-20T05:26:19;8.05;;;4.47;;
31652;SDS011;18261;53.648;9.910;2022-11-20T05:28:46;10.82;;;4.80;;
31652;SDS011;18261;53.648;9.910;2022-11-20T05:31:13;10.63;;;4.72;;
31652;SDS011;18261;53.648;9.910;2022-11-20T05:33:40;12.50;;;4.95;;
31652;SDS011;18261;53.648;9.910;2022-11-20T05:36:06;10.00;;;4.60;;
31652;SDS011;18261;53.648;9.910;2022-11-20T05:38:32;15.23;;;5.05;;
31652;SDS011;18261;53.648;9.910;2022-11-20T05:41:05;10.55;;;5.07;;
31652;SDS011;18261;53.648;9.910;2022-11-20T05:43:32;11.13;;;5.10;;
31652;SDS011;18261;53.648;9.910;2022-11-20T05:45:59;8.55;;;5.00;;
31652;SDS011;18261;53.648;9.910;2022-11-20T05:48:25;10.80;;;5.00;;
31652;SDS011;18261;53.648;9.910;2022-11-20T05:50:51;10.82;;;5.28;;
31652;SDS011;18261;53.648;9.910;2022-11-20T05:53:17;10.07;;;5.00;;
31652;SDS011;18261;53.648;9.910;2022-11-20T05:55:43;10.30;;;5.00;;
31652;SDS011;18261;53.648;9.910;2022-11-20T05:58:09;10.95;;;5.10;;
31652;SDS011;18261;53.648;9.910;2022-11-20T06:00:35;11.48;;;5.07;;
31652;SDS011;18261;53.648;9.910;2022-11-20T06:03:01;11.10;;;4.68;;
31652;SDS011;18261;53.648;9.910;2022-11-20T06:05:27;9.45;;;4.65;;
31652;SDS011;18261;53.648;9.910;2022-11-20T06:07:53;10.70;;;4.65;;
31652;SDS011;18261;53.648;9.910;2022-11-20T06:10:19;9.75;;;5.05;;
31652;SDS011;18261;53.648;9.910;2022-11-20T06:12:45;9.18;;;5.05;;
31652;SDS011;18261;53.648;9.910;2022-11-20T06:15:11;11.43;;;5.40;;
31652;SDS011;18261;53.648;9.910;2022-11-20T06:17:37;9.73;;;5.35;;
31652;SDS011;18261;53.648;9.910;2022-11-20T06:20:03;9.10;;;5.00;;
31652;SDS011;18261;53.648;9.910;2022-11-20T06:22:29;8.82;;;5.18;;
31652;SDS011;18261;53.648;9.910;2022-11-20T06:24:55;10.23;;;5.35;;
31652;SDS011;18261;53.648;9.910;2022-11-20T06:27:20;13.82;;;5.50;;
31652;SDS011;18261;53.648;9.910;2022-11-20T06:29:46;11.05;;;6.10;;
31652;SDS011;18261;53.648;9.910;2022-11-20T06:32:12;9.20;;;5.70;;
31652;SDS011;18261;53.648;9.910;2022-11-20T06:34:38;12.32;;;6.13;;
31652;SDS011;18261;53.648;9.910;2022-11-20T06:37:04;14.38;;;6.07;;
31652;SDS011;18261;53.648;9.910;2022-11-20T06:39:30;10.90;;;6.25;;
31652;SDS011;18261;53.648;9.910;2022-11-20T06:41:56;15.43;;;6.47;;
31652;SDS011;18261;53.648;9.910;2022-11-20T06:44:22;12.95;;;6.10;;
31652;SDS011;18261;53.648;9.910;2022-11-20T06:46:48;10.27;;;6.25;;
31652;SDS011;18261;53.648;9.910;2022-11-20T06:49:14;12.93;;;5.72;;
31652;SDS011;18261;53.648;9.910;2022-11-20T06:51:40;10.50;;;5.97;;
31652;SDS011;18261;53.648;9.910;2022-11-20T06:54:06;16.08;;;6.03;;
31652;SDS011;18261;53.648;9.910;2022-11-20T06:56:32;9.38;;;5.80;;
31652;SDS011;18261;53.648;9.910;2022-11-20T06:58:58;10.98;;;6.05;;
31652;SDS011;18261;53.648;9.910;2022-11-20T07:01:24;14.50;;;6.60;;
31652;SDS011;18261;53.648;9.910;2022-11-20T07:03:50;8.82;;;5.38;;
31652;SDS011;18261;53.648;9.910;2022-11-20T07:06:16;10.35;;;5.95;;
31652;SDS011;18261;53.648;9.910;2022-11-20T07:08:42;8.68;;;5.65;;
31652;SDS011;18261;53.648;9.910;2022-11-20T07:11:08;24.05;;;12.45;;
31652;SDS011;18261;53.648;9.910;2022-11-20T07:13:34;12.45;;;6.90;;
31652;SDS011;18261;53.648;9.910;2022-11-20T07:16:01;15.80;;;6.40;;
31652;SDS011;18261;53.648;9.910;2022-11-20T07:18:27;11.05;;;5.97;;
31652;SDS011;18261;53.648;9.910;2022-11-20T07:20:53;8.68;;;5.78;;
31652;SDS011;18261;53.648;9.910;2022-11-20T07:23:19;10.52;;;5.82;;
31652;SDS011;18261;53.648;9.910;2022-11-20T07:25:45;10.00;;;5.55;;
31652;SDS011;18261;53.648;9.910;2022-11-20T07:28:11;13.30;;;6.32;;
31652;SDS011;18261;53.648;9.910;2022-11-20T07:30:37;12.73;;;6.15;;
31652;SDS011;18261;53.648;9.910;2022-11-20T07:33:03;14.75;;;7.05;;
31652;SDS011;18261;53.648;9.910;2022-11-20T07:35:29;12.27;;;6.80;;
31652;SDS011;18261;53.648;9.910;2022-11-20T07:37:55;12.05;;;6.55;;
31652;SDS011;18261;53.648;9.910;2022-11-20T07:40:21;12.27;;;6.13;;
31652;SDS011;18261;53.648;9.910;2022-11-20T07:42:50;15.35;;;6.40;;
31652;SDS011;18261;53.648;9.910;2022-11-20T07:45:17;11.50;;;6.30;;
31652;SDS011;18261;53.648;9.910;2022-11-20T07:47:43;12.13;;;6.18;;
31652;SDS011;18261;53.648;9.910;2022-11-20T07:50:09;14.75;;;6.20;;
31652;SDS011;18261;53.648;9.910;2022-11-20T07:52:35;11.68;;;6.47;;
31652;SDS011;18261;53.648;9.910;2022-11-20T07:55:01;10.68;;;6.32;;
31652;SDS011;18261;53.648;9.910;2022-11-20T07:57:27;14.80;;;6.07;;
31652;SDS011;18261;53.648;9.910;2022-11-20T07:59:53;14.90;;;6.30;;
31652;SDS011;18261;53.648;9.910;2022-11-20T08:02:19;11.88;;;5.78;;
31652;SDS011;18261;53.648;9.910;2022-11-20T08:04:45;10.27;;;5.75;;
31652;SDS011;18261;53.648;9.910;2022-11-20T08:07:11;11.43;;;5.65;;
31652;SDS011;18261;53.648;9.910;2022-11-20T08:09:37;12.57;;;6.15;;
31652;SDS011;18261;53.648;9.910;2022-11-20T08:12:03;9.55;;;6.20;;
31652;SDS011;18261;53.648;9.910;2022-11-20T08:14:48;9.93;;;6.10;;
31652;SDS011;18261;53.648;9.910;2022-11-20T08:17:14;10.82;;;5.68;;
31652;SDS011;18261;53.648;9.910;2022-11-20T08:19:40;18.88;;;9.45;;
31652;SDS011;18261;53.648;9.910;2022-11-20T08:22:06;9.27;;;5.70;;
31652;SDS011;18261;53.648;9.910;2022-11-20T08:24:32;8.88;;;5.50;;
31652;SDS011;18261;53.648;9.910;2022-11-20T08:26:58;9.07;;;5.88;;
31652;SDS011;18261;53.648;9.910;2022-11-20T08:29:26;10.05;;;5.95;;
31652;SDS011;18261;53.648;9.910;2022-11-20T08:31:52;10.98;;;5.28;;
31652;SDS011;18261;53.648;9.910;2022-11-20T08:34:19;8.65;;;5.50;;
31652;SDS011;18261;53.648;9.910;2022-11-20T08:36:45;11.18;;;5.97;;
31652;SDS011;18261;53.648;9.910;2022-11-20T08:39:11;10.32;;;5.63;;
31652;SDS011;18261;53.648;9.910;2022-11-20T08:41:38;12.15;;;5.88;;
31652;SDS011;18261;53.648;9.910;2022-11-20T08:44:04;8.43;;;5.20;;
31652;SDS011;18261;53.648;9.910;2022-11-20T08:46:32;12.48;;;5.35;;
31652;SDS011;18261;53.648;9.910;2022-11-20T08:48:59;8.05;;;5.25;;
31652;SDS011;18261;53.648;9.910;2022-11-20T08:51:25;10.35;;;5.22;;
31652;SDS011;18261;53.648;9.910;2022-11-20T08:53:51;8.23;;;5.00;;
31652;SDS011;18261;53.648;9.910;2022-11-20T08:56:17;8.93;;;5.28;;
31652;SDS011;18261;53.648;9.910;2022-11-20T08:58:43;8.45;;;4.90;;
31652;SDS011;18261;53.648;9.910;2022-11-20T09:01:09;7.47;;;5.07;;
31652;SDS011;18261;53.648;9.910;2022-11-20T09:03:35;10.38;;;5.57;;
31652;SDS011;18261;53.648;9.910;2022-11-20T09:06:05;10.48;;;5.65;;
31652;SDS011;18261;53.648;9.910;2022-11-20T09:08:32;8.65;;;4.80;;
31652;SDS011;18261;53.648;9.910;2022-11-20T09:10:58;9.15;;;5.45;;
31652;SDS011;18261;53.648;9.910;2022-11-20T09:13:25;9.73;;;5.20;;
31652;SDS011;18261;53.648;9.910;2022-11-20T09:15:58;10.43;;;5.25;;
31652;SDS011;18261;53.648;9.910;2022-11-20T09:18:25;8.75;;;5.28;;
31652;SDS011;18261;53.648;9.910;2022-11-20T09:20:51;7.85;;;4.82;;
31652;SDS011;18261;53.648;9.910;2022-11-20T09:23:18;10.95;;;5.72;;
31652;SDS011;18261;53.648;9.910;2022-11-20T09:25:44;8.15;;;4.68;;
31652;SDS011;18261;53.648;9.910;2022-11-20T09:28:10;10.13;;;5.13;;
31652;SDS011;18261;53.648;9.910;2022-11-20T09:30:36;14.55;;;8.82;;
31652;SDS011;18261;53.648;9.910;2022-11-20T09:33:03;9.85;;;6.78;;
31652;SDS011;18261;53.648;9.910;2022-11-20T09:35:29;11.10;;;6.07;;
31652;SDS011;18261;53.648;9.910;2022-11-20T09:37:55;10.90;;;5.25;;
31652;SDS011;18261;53.648;9.910;2022-11-20T09:40:28;10.13;;;6.10;;
31652;SDS011;18261;53.648;9.910;2022-11-20T09:45:21;11.00;;;5.65;;
31652;SDS011;18261;53.648;9.910;2022-11-20T09:50:40;7.35;;;4.55;;
31652;SDS011;18261;53.648;9.910;2022-11-20T09:53:30;8.25;;;4.88;;
31652;SDS011;18261;53.648;9.910;2022-11-20T09:56:00;8.07;;;4.20;;
31652;SDS011;18261;53.648;9.910;2022-11-20T09:58:32;5.28;;;4.15;;
31652;SDS011;18261;53.648;9.910;2022-11-20T10:01:03;6.50;;;4.18;;
31652;SDS011;18261;53.648;9.910;2022-11-20T10:03:54;7.18;;;4.05;;
31652;SDS011;18261;53.648;9.910;2022-11-20T10:06:24;6.50;;;4.10;;
31652;SDS011;18261;53.648;9.910;2022-11-20T10:09:03;7.43;;;4.53;;
31652;SDS011;18261;53.648;9.910;2022-11-20T10:17:00;11.18;;;5.40;;
31652;SDS011;18261;53.648;9.910;2022-11-20T10:19:49;7.97;;;4.65;;
31652;SDS011;18261;53.648;9.910;2022-11-20T10:27:34;6.07;;;3.90;;
31652;SDS011;18261;53.648;9.910;2022-11-20T10:30:07;6.20;;;4.28;;
31652;SDS011;18261;53.648;9.910;2022-11-20T10:32:38;5.10;;;3.90;;
31652;SDS011;18261;53.648;9.910;2022-11-20T10:35:06;7.22;;;3.75;;
31652;SDS011;18261;53.648;9.910;2022-11-20T10:37:34;7.05;;;4.60;;
31652;SDS011;18261;53.648;9.910;2022-11-20T10:40:11;8.45;;;4.32;;
31652;SDS011;18261;53.648;9.910;2022-11-20T10:42:42;5.47;;;3.95;;
31652;SDS011;18261;53.648;9.910;2022-11-20T10:45:57;7.88;;;4.40;;
31652;SDS011;18261;53.648;9.910;2022-11-20T10:47:59;7.15;;;4.88;;
31652;SDS011;18261;53.648;9.910;2022-11-20T10:50:30;6.68;;;4.30;;
31652;SDS011;18261;53.648;9.910;2022-11-20T10:53:05;7.05;;;4.38;;
31652;SDS011;18261;53.648;9.910;2022-11-20T10:55:42;7.95;;;4.43;;
31652;SDS011;18261;53.648;9.910;2022-11-20T10:58:14;8.35;;;4.68;;
31652;SDS011;18261;53.648;9.910;2022-11-20T11:00:42;5.43;;;4.45;;
31652;SDS011;18261;53.648;9.910;2022-11-20T11:03:22;8.52;;;5.38;;
31652;SDS011;18261;53.648;9.910;2022-11-20T11:05:58;6.75;;;4.63;;
31652;SDS011;18261;53.648;9.910;2022-11-20T11:08:26;6.13;;;4.20;;
31652;SDS011;18261;53.648;9.910;2022-11-20T11:10:57;6.53;;;4.40;;
31652;SDS011;18261;53.648;9.910;2022-11-20T11:13:25;10.20;;;4.45;;
31652;SDS011;18261;53.648;9.910;2022-11-20T11:15:51;8.07;;;4.65;;
31652;SDS011;18261;53.648;9.910;2022-11-20T11:18:24;11.30;;;4.20;;
31652;SDS011;18261;53.648;9.910;2022-11-20T11:20:51;4.50;;;3.65;;
31652;SDS011;18261;53.648;9.910;2022-11-20T11:25:57;5.65;;;3.50;;
31652;SDS011;18261;53.648;9.910;2022-11-20T11:28:26;6.82;;;4.10;;
31652;SDS011;18261;53.648;9.910;2022-11-20T11:30:53;5.18;;;3.60;;
31652;SDS011;18261;53.648;9.910;2022-11-20T11:33:21;4.70;;;3.30;;
31652;SDS011;18261;53.648;9.910;2022-11-20T11:35:48;5.57;;;3.50;;
31652;SDS011;18261;53.648;9.910;2022-11-20T11:38:17;5.95;;;4.00;;
31652;SDS011;18261;53.648;9.910;2022-11-20T11:40:45;6.47;;;4.20;;
31652;SDS011;18261;53.648;9.910;2022-11-20T11:43:17;6.57;;;4.00;;
31652;SDS011;18261;53.648;9.910;2022-11-20T11:46:02;8.00;;;4.00;;
31652;SDS011;18261;53.648;9.910;2022-11-20T11:48:31;5.38;;;3.83;;
31652;SDS011;18261;53.648;9.910;2022-11-20T11:50:57;7.13;;;3.88;;
31652;SDS011;18261;53.648;9.910;2022-11-20T11:53:23;7.25;;;4.13;;
31652;SDS011;18261;53.648;9.910;2022-11-20T11:55:55;5.68;;;3.58;;
31652;SDS011;18261;53.648;9.910;2022-11-20T12:03:49;7.28;;;4.65;;
31652;SDS011;18261;53.648;9.910;2022-11-20T12:06:18;6.82;;;4.43;;
31652;SDS011;18261;53.648;9.910;2022-11-20T12:11:16;8.45;;;3.78;;
31652;SDS011;18261;53.648;9.910;2022-11-20T12:13:54;5.13;;;3.65;;
31652;SDS011;18261;53.648;9.910;2022-11-20T12:16:21;9.07;;;4.13;;
31652;SDS011;18261;53.648;9.910;2022-11-20T12:18:49;8.00;;;3.30;;
31652;SDS011;18261;53.648;9.910;2022-11-20T12:21:19;5.05;;;3.28;;
31652;SDS011;18261;53.648;9.910;2022-11-20T12:29:06;3.95;;;2.10;;
31652;SDS011;18261;53.648;9.910;2022-11-20T12:37:23;3.60;;;2.10;;
31652;SDS011;18261;53.648;9.910;2022-11-20T12:39:26;6.00;;;3.92;;
31652;SDS011;18261;53.648;9.910;2022-11-20T12:42:02;4.70;;;2.15;;
31652;SDS011;18261;53.648;9.910;2022-11-20T12:45:00;5.63;;;3.22;;
31652;SDS011;18261;53.648;9.910;2022-11-20T12:47:47;4.35;;;2.45;;
31652;SDS011;18261;53.648;9.910;2022-11-20T12:50:19;5.22;;;2.78;;
31652;SDS011;18261;53.648;9.910;2022-11-20T12:52:51;4.95;;;2.85;;
31652;SDS011;18261;53.648;9.910;2022-11-20T13:00:32;4.28;;;2.63;;
31652;SDS011;18261;53.648;9.910;2022-11-20T13:05:37;5.47;;;2.90;;
31652;SDS011;18261;53.648;9.910;2022-11-20T13:08:08;5.25;;;3.20;;
31652;SDS011;18261;53.648;9.910;2022-11-20T13:10:52;4.20;;;3.15;;
31652;SDS011;18261;53.648;9.910;2022-11-20T13:16:10;5.13;;;3.42;;
31652;SDS011;18261;53.648;9.910;2022-11-20T13:18:39;5.95;;;3.30;;
31652;SDS011;18261;53.648;9.910;2022-11-20T13:21:42;7.43;;;4.00;;
31652;SDS011;18261;53.648;9.910;2022-11-20T13:26:44;5.07;;;3.20;;
31652;SDS011;18261;53.648;9.910;2022-11-20T13:29:17;6.60;;;3.33;;
31652;SDS011;18261;53.648;9.910;2022-11-20T13:31:44;7.72;;;3.50;;
31652;SDS011;18261;53.648;9.910;2022-11-20T13:34:23;8.80;;;4.15;;
31652;SDS011;18261;53.648;9.910;2022-11-20T13:36:51;7.90;;;3.45;;
31652;SDS011;18261;53.648;9.910;2022-11-20T13:39:28;8.63;;;3.40;;
31652;SDS011;18261;53.648;9.910;2022-11-20T13:41:55;6.95;;;3.92;;
31652;SDS011;18261;53.648;9.910;2022-11-20T13:44:24;9.80;;;4.20;;
31652;SDS011;18261;53.648;9.910;2022-11-20T13:46:50;6.72;;;3.30;;
31652;SDS011;18261;53.648;9.910;2022-11-20T13:49:26;7.63;;;4.25;;
31652;SDS011;18261;53.648;9.910;2022-11-20T13:59:53;8.27;;;3.63;;
31652;SDS011;18261;53.648;9.910;2022-11-20T14:02:21;7.45;;;3.75;;
31652;SDS011;18261;53.648;9.910;2022-11-20T14:04:48;8.13;;;3.60;;
31652;SDS011;18261;53.648;9.910;2022-11-20T14:07:16;5.65;;;3.20;;
31652;SDS011;18261;53.648;9.910;2022-11-20T14:09:49;4.15;;;2.90;;
31652;SDS011;18261;53.648;9.910;2022-11-20T14:12:17;5.60;;;2.72;;
31652;SDS011;18261;53.648;9.910;2022-11-20T14:14:51;5.07;;;3.05;;
31652;SDS011;18261;53.648;9.910;2022-11-20T14:17:18;3.97;;;2.33;;
31652;SDS011;18261;53.648;9.910;2022-11-20T14:19:45;5.35;;;3.03;;
31652;SDS011;18261;53.648;9.910;2022-11-20T14:22:22;7.65;;;3.40;;
31652;SDS011;18261;53.648;9.910;2022-11-20T14:24:49;5.90;;;3.08;;
31652;SDS011;18261;53.648;9.910;2022-11-20T14:27:16;6.85;;;2.97;;
31652;SDS011;18261;53.648;9.910;2022-11-20T14:29:43;4.97;;;3.08;;
31652;SDS011;18261;53.648;9.910;2022-11-20T14:32:10;7.05;;;3.03;;
31652;SDS011;18261;53.648;9.910;2022-11-20T14:34:37;5.55;;;3.08;;
31652;SDS011;18261;53.648;9.910;2022-11-20T14:37:05;5.72;;;3.28;;
31652;SDS011;18261;53.648;9.910;2022-11-20T14:39:36;5.30;;;2.90;;
31652;SDS011;18261;53.648;9.910;2022-11-20T14:42:15;6.20;;;2.67;;
31652;SDS011;18261;53.648;9.910;2022-11-20T14:44:41;7.32;;;3.10;;
31652;SDS011;18261;53.648;9.910;2022-11-20T14:47:08;9.45;;;3.03;;
31652;SDS011;18261;53.648;9.910;2022-11-20T14:49:36;6.13;;;2.83;;
31652;SDS011;18261;53.648;9.910;2022-11-20T14:52:09;4.70;;;3.15;;
31652;SDS011;18261;53.648;9.910;2022-11-20T14:54:43;4.68;;;3.22;;
31652;SDS011;18261;53.648;9.910;2022-11-20T14:57:18;4.50;;;3.20;;
31652;SDS011;18261;53.648;9.910;2022-11-20T14:59:45;5.95;;;3.40;;
31652;SDS011;18261;53.648;9.910;2022-11-20T15:02:11;5.88;;;3.45;;
31652;SDS011;18261;53.648;9.910;2022-11-20T15:04:47;7.50;;;4.10;;
31652;SDS011;18261;53.648;9.910;2022-11-20T15:07:24;5.97;;;3.38;;
31652;SDS011;18261;53.648;9.910;2022-11-20T15:10:00;6.60;;;4.22;;
31652;SDS011;18261;53.648;9.910;2022-11-20T15:12:26;7.80;;;4.10;;
31652;SDS011;18261;53.648;9.910;2022-11-20T15:14:52;10.68;;;4.15;;
31652;SDS011;18261;53.648;9.910;2022-11-20T15:17:18;7.28;;;4.20;;
31652;SDS011;18261;53.648;9.910;2022-11-20T15:19:44;5.38;;;3.17;;
31652;SDS011;18261;53.648;9.910;2022-11-20T15:22:11;6.45;;;4.07;;
31652;SDS011;18261;53.648;9.910;2022-11-20T15:24:38;12.07;;;5.57;;
31652;SDS011;18261;53.648;9.910;2022-11-20T15:27:04;9.25;;;4.75;;
31652;SDS011;18261;53.648;9.910;2022-11-20T15:29:30;9.80;;;4.65;;
31652;SDS011;18261;53.648;9.910;2022-11-20T15:31:57;7.38;;;4.70;;
31652;SDS011;18261;53.648;9.910;2022-11-20T15:34:22;6.88;;;4.38;;
31652;SDS011;18261;53.648;9.910;2022-11-20T15:36:48;7.43;;;4.22;;
31652;SDS011;18261;53.648;9.910;2022-11-20T15:39:14;10.57;;;5.30;;
31652;SDS011;18261;53.648;9.910;2022-11-20T15:41:40;8.07;;;4.57;;
31652;SDS011;18261;53.648;9.910;2022-11-20T15:44:06;12.48;;;5.82;;
31652;SDS011;18261;53.648;9.910;2022-11-20T15:46:33;9.13;;;5.32;;
31652;SDS011;18261;53.648;9.910;2022-11-20T15:49:03;9.98;;;4.57;;
31652;SDS011;18261;53.648;9.910;2022-11-20T15:51:36;9.57;;;4.40;;
31652;SDS011;18261;53.648;9.910;2022-11-20T15:54:10;6.90;;;4.68;;
31652;SDS011;18261;53.648;9.910;2022-11-20T15:56:36;7.93;;;4.50;;